createdAt,value
2018-12-16T00:01:32.553Z,102027.94
2018-12-16T00:04:00.760Z,102015.81
2018-12-16T00:06:29.193Z,102028.45
2018-12-16T00:08:58.128Z,102022.87
2018-12-16T00:11:26.416Z,102025.70
2018-12-16T00:13:54.757Z,102015.76
2018-12-16T00:16:23.024Z,102000.73
2018-12-16T00:18:51.250Z,101996.92
2018-12-16T00:21:19.478Z,101996.80
2018-12-16T00:23:47.725Z,102003.52
2018-12-16T00:26:15.972Z,102000.10
2018-12-16T00:28:44.368Z,102000.90
2018-12-16T00:31:12.666Z,101999.64
2018-12-16T00:33:41.040Z,101995.83
2018-12-16T00:36:09.396Z,101998.39
2018-12-16T00:38:37.653Z,102001.81
2018-12-16T00:41:06.031Z,102008.74
2018-12-16T00:43:34.256Z,102010.78
2018-12-16T00:46:02.627Z,102000.31
2018-12-16T00:48:30.860Z,102005.20
2018-12-16T00:50:59.105Z,102009.41
2018-12-16T00:53:27.297Z,102001.00
2018-12-16T00:55:55.630Z,102003.09
2018-12-16T00:58:23.865Z,102004.75
2018-12-16T01:00:52.259Z,102009.30
2018-12-16T01:03:20.562Z,101994.22
2018-12-16T01:05:48.741Z,101999.68
2018-12-16T01:08:17.020Z,101999.95
2018-12-16T01:10:45.244Z,102010.15
2018-12-16T01:13:13.567Z,102008.05
2018-12-16T01:15:41.942Z,102004.69
2018-12-16T01:18:10.180Z,102007.41
2018-12-16T01:20:38.493Z,101997.45
2018-12-16T01:23:06.717Z,102005.75
2018-12-16T01:25:35.172Z,102007.92
2018-12-16T01:28:03.503Z,101995.35
2018-12-16T01:30:32.176Z,102002.86
2018-12-16T01:33:00.400Z,102004.11
2018-12-16T01:35:28.626Z,102000.41
2018-12-16T01:37:56.945Z,101998.25
2018-12-16T01:40:26.419Z,101996.54
2018-12-16T01:42:54.730Z,101992.33
2018-12-16T01:45:22.964Z,101991.53
2018-12-16T01:47:51.231Z,101988.18
2018-12-16T01:50:19.556Z,101984.83
2018-12-16T01:52:50.314Z,101976.00
2018-12-16T01:55:18.113Z,101973.45
2018-12-16T01:57:46.440Z,101963.44
2018-12-16T02:00:14.873Z,101960.48
2018-12-16T02:02:43.140Z,101957.64
2018-12-16T02:05:11.605Z,101942.84
2018-12-16T02:07:39.935Z,101937.90
2018-12-16T02:10:08.403Z,101933.75
2018-12-16T02:12:36.655Z,101924.59
2018-12-16T02:15:05.288Z,101914.19
2018-12-16T02:17:33.520Z,101916.75
2018-12-16T02:20:01.828Z,101905.55
2018-12-16T02:22:30.045Z,101895.48
2018-12-16T02:24:58.252Z,101899.75
2018-12-16T02:27:26.568Z,101890.53
2018-12-16T02:29:54.752Z,101884.73
2018-12-16T02:32:23.145Z,101880.87
2018-12-16T02:34:51.347Z,101877.57
2018-12-16T02:37:19.574Z,101878.42
2018-12-16T02:39:47.953Z,101866.31
2018-12-16T02:42:16.230Z,101872.22
2018-12-16T02:44:44.421Z,101876.32
2018-12-16T02:47:12.690Z,101871.43
2018-12-16T02:49:40.960Z,101865.91
2018-12-16T02:52:09.228Z,101862.44
2018-12-16T02:54:37.496Z,101861.98
2018-12-16T02:57:05.684Z,101859.14
2018-12-16T02:59:33.947Z,101859.59
2018-12-16T03:02:02.232Z,101852.49
2018-12-16T03:04:30.610Z,101854.14
2018-12-16T03:06:58.989Z,101859.59
2018-12-16T03:09:27.260Z,101863.07
2018-12-16T03:11:55.496Z,101845.33
2018-12-16T03:14:23.821Z,101849.02
2018-12-16T03:16:52.094Z,101849.64
2018-12-16T03:19:20.332Z,101841.22
2018-12-16T03:21:48.657Z,101837.44
2018-12-16T03:24:16.960Z,101821.70
2018-12-16T03:26:45.186Z,101827.48
2018-12-16T03:29:13.493Z,101822.74
2018-12-16T03:31:41.709Z,101812.08
2018-12-16T03:34:09.995Z,101808.98
2018-12-16T03:36:38.223Z,101803.97
2018-12-16T03:39:08.049Z,101800.31
2018-12-16T03:41:36.511Z,101796.11
2018-12-16T03:44:04.728Z,101788.04
2018-12-16T03:46:33.168Z,101776.21
2018-12-16T03:49:01.423Z,101781.43
2018-12-16T03:51:29.712Z,101774.81
2018-12-16T03:53:57.948Z,101769.30
2018-12-16T03:56:26.217Z,101757.98
2018-12-16T03:59:05.867Z,101755.37
2018-12-16T04:01:34.114Z,101757.62
2018-12-16T04:04:02.443Z,101760.53
2018-12-16T04:06:30.706Z,101754.38
2018-12-16T04:08:59.012Z,101746.86
2018-12-16T04:11:27.240Z,101740.70
2018-12-16T04:13:55.618Z,101754.92
2018-12-16T04:16:24.144Z,101726.67
2018-12-16T04:18:52.376Z,101728.02
2018-12-16T04:21:20.658Z,101717.00
2018-12-16T04:23:48.894Z,101707.33
2018-12-16T04:26:17.105Z,101711.39
2018-12-16T04:28:45.357Z,101708.48
2018-12-16T04:31:13.652Z,101705.08
2018-12-16T04:33:41.888Z,101695.31
2018-12-16T04:36:10.286Z,101692.91
2018-12-16T04:38:38.562Z,101676.48
2018-12-16T04:41:06.912Z,101675.58
2018-12-16T04:43:35.288Z,101671.38
2018-12-16T04:46:03.682Z,101676.43
2018-12-16T04:48:31.995Z,101673.13
2018-12-16T04:51:00.232Z,101663.02
2018-12-16T04:53:34.835Z,101662.20
2018-12-16T04:55:58.790Z,101658.00
2018-12-16T04:58:27.105Z,101657.00
2018-12-16T05:00:55.292Z,101658.80
2018-12-16T05:03:23.620Z,101651.30
2018-12-16T05:05:52.023Z,101661.31
2018-12-16T05:08:20.297Z,101662.52
2018-12-16T05:10:48.548Z,101656.20
2018-12-16T05:13:16.839Z,101655.30
2018-12-16T05:15:45.245Z,101655.35
2018-12-16T05:18:13.456Z,101653.95
2018-12-16T05:20:41.675Z,101656.11
2018-12-16T05:23:10.061Z,101655.52
2018-12-16T05:25:38.268Z,101659.46
2018-12-16T05:28:06.564Z,101665.67
2018-12-16T05:30:34.896Z,101659.46
2018-12-16T05:33:03.292Z,101660.46
2018-12-16T05:35:31.615Z,101651.48
2018-12-16T05:37:59.876Z,101658.75
2018-12-16T05:40:28.303Z,101662.80
2018-12-16T05:42:56.570Z,101660.13
2018-12-16T05:45:24.824Z,101644.78
2018-12-16T05:47:53.124Z,101652.94
2018-12-16T05:50:21.372Z,101644.40
2018-12-16T05:52:49.692Z,101631.47
2018-12-16T05:55:17.920Z,101633.66
2018-12-16T05:57:46.116Z,101629.19
2018-12-16T06:00:14.400Z,101628.47
2018-12-16T06:02:42.700Z,101624.00
2018-12-16T06:05:10.970Z,101620.23
2018-12-16T06:07:39.284Z,101614.13
2018-12-16T06:10:07.681Z,101607.82
2018-12-16T06:12:36.004Z,101612.03
2018-12-16T06:15:04.457Z,101609.61
2018-12-16T06:17:32.719Z,101611.80
2018-12-16T06:20:01.024Z,101605.17
2018-12-16T06:22:29.260Z,101605.58
2018-12-16T06:24:57.576Z,101610.77
2018-12-16T06:27:25.816Z,101607.86
2018-12-16T06:29:54.461Z,101607.98
2018-12-16T06:32:22.785Z,101589.53
2018-12-16T06:34:51.052Z,101584.52
2018-12-16T06:37:19.272Z,101570.73
2018-12-16T06:39:47.541Z,101577.72
2018-12-16T06:42:15.788Z,101575.09
2018-12-16T06:44:44.028Z,101583.14
2018-12-16T06:47:12.232Z,101586.05
2018-12-16T06:49:40.424Z,101570.20
2018-12-16T06:52:08.717Z,101571.98
2018-12-16T06:54:37.137Z,101574.89
2018-12-16T06:57:05.345Z,101568.34
2018-12-16T06:59:33.624Z,101569.20
2018-12-16T07:02:01.958Z,101572.64
2018-12-16T07:04:30.233Z,101563.82
2018-12-16T07:06:58.454Z,101564.27
2018-12-16T07:09:26.768Z,101562.48
2018-12-16T07:11:55.006Z,101566.77
2018-12-16T07:14:23.268Z,101570.62
2018-12-16T07:16:51.608Z,101565.52
2018-12-16T07:19:19.971Z,101564.75
2018-12-16T07:21:48.267Z,101562.37
2018-12-16T07:24:16.494Z,101560.83
2018-12-16T07:26:44.797Z,101559.37
2018-12-16T07:29:13.034Z,101561.19
2018-12-16T07:31:41.352Z,101561.09
2018-12-16T07:34:09.657Z,101563.45
2018-12-16T07:36:37.964Z,101569.31
2018-12-16T07:39:07.812Z,101566.08
2018-12-16T07:41:36.226Z,101564.02
2018-12-16T07:44:04.635Z,101563.09
2018-12-16T07:46:32.988Z,101557.62
2018-12-16T07:49:01.272Z,101560.58
2018-12-16T07:51:29.586Z,101559.39
2018-12-16T07:53:57.913Z,101553.49
2018-12-16T07:56:26.318Z,101559.32
2018-12-16T07:58:54.720Z,101565.02
2018-12-16T08:01:23.052Z,101569.33
2018-12-16T08:03:51.407Z,101573.50
2018-12-16T08:06:19.782Z,101570.30
2018-12-16T08:08:48.061Z,101569.64
2018-12-16T08:11:16.280Z,101564.28
2018-12-16T08:13:44.641Z,101568.42
2018-12-16T08:16:12.863Z,101558.08
2018-12-16T08:18:41.120Z,101556.27
2018-12-16T08:21:09.356Z,101562.22
2018-12-16T08:23:37.606Z,101559.89
2018-12-16T08:26:06.008Z,101556.49
2018-12-16T08:28:34.220Z,101551.44
2018-12-16T08:31:02.577Z,101557.75
2018-12-16T08:33:30.925Z,101551.52
2018-12-16T08:35:59.096Z,101558.41
2018-12-16T08:38:27.380Z,101558.92
2018-12-16T08:40:55.613Z,101548.51
2018-12-16T08:43:23.929Z,101544.67
2018-12-16T08:45:52.165Z,101548.44
2018-12-16T08:48:20.378Z,101543.86
2018-12-16T08:50:48.652Z,101539.93
2018-12-16T08:53:16.920Z,101544.44
2018-12-16T08:55:45.310Z,101533.65
2018-12-16T08:58:13.553Z,101534.46
2018-12-16T09:00:41.861Z,101531.27
2018-12-16T09:03:11.236Z,101529.58
2018-12-16T09:05:39.557Z,101533.99
2018-12-16T09:08:07.780Z,101534.13
2018-12-16T09:10:36.068Z,101526.75
2018-12-16T09:13:04.486Z,101533.38
2018-12-16T09:15:32.704Z,101532.66
2018-12-16T09:18:00.986Z,101532.22
2018-12-16T09:20:29.249Z,101525.77
2018-12-16T09:22:57.578Z,101523.19
2018-12-16T09:25:25.812Z,101530.83
2018-12-16T09:27:54.121Z,101529.54
2018-12-16T09:30:22.356Z,101527.50
2018-12-16T09:32:50.784Z,101527.70
2018-12-16T09:35:19.028Z,101526.60
2018-12-16T09:37:47.292Z,101524.56
2018-12-16T09:40:15.744Z,101529.17
2018-12-16T09:42:43.968Z,101512.43
2018-12-16T09:45:12.226Z,101513.66
2018-12-16T09:47:40.865Z,101506.71
2018-12-16T09:50:09.276Z,101512.30
2018-12-16T09:52:37.513Z,101506.36
2018-12-16T09:55:27.180Z,101509.84
2018-12-16T09:57:55.464Z,101517.83
2018-12-16T10:00:23.632Z,101516.31
2018-12-16T10:02:51.871Z,101512.60
2018-12-16T10:05:20.190Z,101512.22
2018-12-16T10:07:48.462Z,101523.53
2018-12-16T10:10:16.708Z,101513.92
2018-12-16T10:12:44.980Z,101515.47
2018-12-16T10:15:13.256Z,101515.44
2018-12-16T10:17:42.496Z,101505.50
2018-12-16T10:20:11.768Z,101510.97
2018-12-16T10:22:40.008Z,101494.20
2018-12-16T10:25:08.410Z,101494.97
2018-12-16T10:27:36.725Z,101496.05
2018-12-16T10:30:06.831Z,101488.77
2018-12-16T10:32:35.078Z,101495.28
2018-12-16T10:35:03.501Z,101486.23
2018-12-16T10:37:31.788Z,101488.45
2018-12-16T10:40:00.259Z,101483.80
2018-12-16T10:42:28.500Z,101485.05
2018-12-16T10:44:56.776Z,101490.00
2018-12-16T10:47:24.970Z,101480.55
2018-12-16T10:49:53.257Z,101485.27
2018-12-16T10:52:21.504Z,101476.58
2018-12-16T10:54:49.810Z,101465.73
2018-12-16T10:57:18.043Z,101477.56
2018-12-16T10:59:46.308Z,101471.58
2018-12-16T11:02:14.496Z,101470.61
2018-12-16T11:04:42.797Z,101461.11
2018-12-16T11:07:11.087Z,101467.28
2018-12-16T11:09:39.367Z,101454.54
2018-12-16T11:12:07.760Z,101463.78
2018-12-16T11:14:36.005Z,101456.73
2018-12-16T11:17:04.404Z,101450.33
2018-12-16T11:19:32.793Z,101448.25
2018-12-16T11:22:01.017Z,101447.02
2018-12-16T11:24:29.292Z,101447.11
2018-12-16T11:26:57.613Z,101441.12
2018-12-16T11:29:25.887Z,101433.14
2018-12-16T11:31:54.132Z,101439.12
2018-12-16T11:34:22.668Z,101426.06
2018-12-16T11:36:51.005Z,101428.86
2018-12-16T11:39:19.436Z,101433.48
2018-12-16T11:41:47.682Z,101439.19
2018-12-16T11:44:15.883Z,101436.34
2018-12-16T11:46:44.132Z,101428.69
2018-12-16T11:49:12.356Z,101435.27
2018-12-16T11:51:41.008Z,101430.44
2018-12-16T11:54:09.224Z,101437.63
2018-12-16T11:56:37.560Z,101431.07
2018-12-16T11:59:05.764Z,101432.43
2018-12-16T12:01:33.993Z,101436.48
2018-12-16T12:04:04.838Z,101438.47
2018-12-16T12:06:33.065Z,101434.32
2018-12-16T12:09:01.363Z,101423.98
2018-12-16T12:11:29.656Z,101432.13
2018-12-16T12:13:57.933Z,101423.49
2018-12-16T12:16:26.223Z,101425.98
2018-12-16T12:19:00.959Z,101415.95
2018-12-16T12:21:29.348Z,101420.52
2018-12-16T12:23:57.800Z,101414.64
2018-12-16T12:26:26.077Z,101413.48
2018-12-16T12:28:54.295Z,101410.10
2018-12-16T12:31:22.484Z,101415.63
2018-12-16T12:33:50.760Z,101408.00
2018-12-16T12:36:19.108Z,101400.21
2018-12-16T12:38:47.472Z,101393.88
2018-12-16T12:41:15.693Z,101402.59
2018-12-16T12:43:44.025Z,101389.28
2018-12-16T12:46:12.252Z,101389.28
2018-12-16T12:48:40.558Z,101379.00
2018-12-16T12:51:08.808Z,101377.66
2018-12-16T12:53:37.211Z,101377.02
2018-12-16T12:56:05.598Z,101376.81
2018-12-16T12:58:33.875Z,101373.45
2018-12-16T13:01:02.132Z,101371.33
2018-12-16T13:03:30.462Z,101370.48
2018-12-16T13:05:58.710Z,101366.32
2018-12-16T13:08:27.004Z,101358.21
2018-12-16T13:10:55.268Z,101359.60
2018-12-16T13:13:23.636Z,101361.30
2018-12-16T13:15:51.809Z,101359.11
2018-12-16T13:18:20.056Z,101372.86
2018-12-16T13:20:48.357Z,101368.40
2018-12-16T13:23:16.560Z,101362.22
2018-12-16T13:25:56.114Z,101365.80
2018-12-16T13:28:24.472Z,101366.91
2018-12-16T13:30:52.824Z,101361.08
2018-12-16T13:33:21.112Z,101367.75
2018-12-16T13:35:49.345Z,101361.73
2018-12-16T13:38:17.668Z,101363.31
2018-12-16T13:40:45.906Z,101365.78
2018-12-16T13:43:14.185Z,101354.03
2018-12-16T13:45:42.483Z,101361.24
2018-12-16T13:48:10.733Z,101356.88
2018-12-16T13:50:39.113Z,101363.00
2018-12-16T13:53:07.388Z,101357.07
2018-12-16T13:55:40.894Z,101363.84
2018-12-16T13:58:05.876Z,101366.77
2018-12-16T14:00:34.110Z,101368.00
2018-12-16T14:03:02.304Z,101365.05
2018-12-16T14:05:30.496Z,101367.42
2018-12-16T14:07:58.738Z,101351.84
2018-12-16T14:10:27.068Z,101360.91
2018-12-16T14:12:55.308Z,101359.25
2018-12-16T14:15:23.616Z,101358.28
2018-12-16T14:17:51.933Z,101359.48
2018-12-16T14:20:20.208Z,101356.06
2018-12-16T14:22:48.556Z,101349.92
2018-12-16T14:25:16.892Z,101356.17
2018-12-16T14:27:45.205Z,101354.22
2018-12-16T14:30:13.579Z,101357.70
2018-12-16T14:32:42.226Z,101344.64
2018-12-16T14:35:11.220Z,101349.67
2018-12-16T14:37:39.441Z,101351.80
2018-12-16T14:40:09.607Z,101357.23
2018-12-16T14:42:38.020Z,101355.51
2018-12-16T14:45:08.097Z,101349.98
2018-12-16T14:47:36.286Z,101354.57
2018-12-16T14:50:06.200Z,101346.48
2018-12-16T14:52:34.555Z,101355.27
2018-12-16T14:55:02.936Z,101351.06
2018-12-16T14:57:31.131Z,101348.55
2018-12-16T14:59:59.393Z,101344.72
2018-12-16T15:02:27.671Z,101342.41
2018-12-16T15:04:55.860Z,101341.53
2018-12-16T15:07:24.063Z,101343.06
2018-12-16T15:09:52.300Z,101336.41
2018-12-16T15:12:20.572Z,101336.38
2018-12-16T15:14:48.941Z,101336.32
2018-12-16T15:17:17.212Z,101339.58
2018-12-16T15:19:45.443Z,101344.60
2018-12-16T15:22:13.764Z,101340.05
2018-12-16T15:24:42.048Z,101335.81
2018-12-16T15:27:10.237Z,101337.04
2018-12-16T15:29:38.447Z,101333.45
2018-12-16T15:32:06.774Z,101335.16
2018-12-16T15:34:35.053Z,101333.86
2018-12-16T15:37:03.292Z,101333.55
2018-12-16T15:39:31.601Z,101344.03
2018-12-16T15:41:59.868Z,101336.06
2018-12-16T15:44:28.164Z,101328.24
2018-12-16T15:46:56.345Z,101329.19
2018-12-16T15:49:24.605Z,101327.80
2018-12-16T15:51:52.844Z,101331.09
2018-12-16T15:54:21.116Z,101334.83
2018-12-16T15:56:49.405Z,101338.08
2018-12-16T15:59:17.783Z,101339.09
2018-12-16T16:01:46.097Z,101334.38
2018-12-16T16:04:14.368Z,101333.95
2018-12-16T16:06:42.592Z,101337.27
2018-12-16T16:09:10.899Z,101340.59
2018-12-16T16:11:40.668Z,101343.09
2018-12-16T16:14:09.004Z,101342.66
2018-12-16T16:16:37.396Z,101338.52
2018-12-16T16:19:05.766Z,101338.55
2018-12-16T16:21:34.116Z,101341.50
2018-12-16T16:24:02.377Z,101351.64
2018-12-16T16:26:30.805Z,101349.95
2018-12-16T16:28:59.022Z,101355.71
2018-12-16T16:31:27.265Z,101352.32
2018-12-16T16:33:55.476Z,101349.00
2018-12-16T16:36:23.708Z,101350.32
2018-12-16T16:38:51.948Z,101355.41
2018-12-16T16:41:20.273Z,101350.73
2018-12-16T16:43:48.505Z,101353.37
2018-12-16T16:46:16.937Z,101358.39
2018-12-16T16:48:45.910Z,101356.66
2018-12-16T16:51:14.093Z,101351.70
2018-12-16T16:53:42.387Z,101351.87
2018-12-16T16:56:10.727Z,101354.75
2018-12-16T16:58:38.908Z,101355.20
2018-12-16T17:01:07.089Z,101354.75
2018-12-16T17:03:35.292Z,101359.06
2018-12-16T17:06:03.476Z,101359.50
2018-12-16T17:08:31.721Z,101352.85
2018-12-16T17:11:00.101Z,101352.66
2018-12-16T17:13:28.321Z,101349.27
2018-12-16T17:15:56.523Z,101354.34
2018-12-16T17:18:24.721Z,101357.02
2018-12-16T17:20:52.931Z,101357.12
2018-12-16T17:23:21.124Z,101362.42
2018-12-16T17:25:49.344Z,101359.06
2018-12-16T17:28:17.532Z,101361.23
2018-12-16T17:30:45.700Z,101360.79
2018-12-16T17:33:14.797Z,101354.89
2018-12-16T17:35:43.015Z,101366.63
2018-12-16T17:38:11.184Z,101362.11
2018-12-16T17:40:39.408Z,101356.78
2018-12-16T17:43:07.627Z,101369.33
2018-12-16T17:45:35.857Z,101368.20
2018-12-16T17:48:04.206Z,101358.03
2018-12-16T17:50:32.392Z,101365.53
2018-12-16T17:53:00.566Z,101366.84
2018-12-16T17:55:28.780Z,101365.59
2018-12-16T17:57:57.079Z,101369.86
2018-12-16T18:00:25.496Z,101370.64
2018-12-16T18:02:53.818Z,101372.81
2018-12-16T18:05:21.992Z,101370.20
2018-12-16T18:07:50.220Z,101374.34
2018-12-16T18:10:18.412Z,101370.95
2018-12-16T18:12:46.588Z,101372.22
2018-12-16T18:15:14.804Z,101376.80
2018-12-16T18:17:43.104Z,101374.25
2018-12-16T18:20:11.464Z,101375.44
2018-12-16T18:22:39.681Z,101373.75
2018-12-16T18:25:07.961Z,101378.42
2018-12-16T18:27:36.176Z,101382.22
2018-12-16T18:30:05.804Z,101376.28
2018-12-16T18:32:33.992Z,101382.91
2018-12-16T18:35:02.187Z,101383.61
2018-12-16T18:37:30.497Z,101378.88
2018-12-16T18:39:58.780Z,101381.52
2018-12-16T18:42:27.007Z,101378.36
2018-12-16T18:44:55.192Z,101380.13
2018-12-16T18:47:23.472Z,101385.59
2018-12-16T18:49:51.690Z,101386.03
2018-12-16T18:52:19.873Z,101387.66
2018-12-16T18:54:48.064Z,101392.64
2018-12-16T18:57:16.336Z,101390.98
2018-12-16T18:59:44.514Z,101389.31
2018-12-16T19:02:12.677Z,101391.05
2018-12-16T19:04:40.884Z,101398.13
2018-12-16T19:07:09.061Z,101395.15
2018-12-16T19:09:37.281Z,101402.64
2018-12-16T19:12:05.492Z,101400.06
2018-12-16T19:14:34.064Z,101404.64
2018-12-16T19:17:02.393Z,101401.76
2018-12-16T19:19:30.565Z,101399.66
2018-12-16T19:21:58.824Z,101402.23
2018-12-16T19:24:27.032Z,101403.89
2018-12-16T19:26:58.445Z,101403.16
2018-12-16T19:29:25.421Z,101401.08
2018-12-16T19:31:53.709Z,101397.18
2018-12-16T19:34:21.913Z,101405.93
2018-12-16T19:36:50.146Z,101411.76
2018-12-16T19:39:18.327Z,101407.59
2018-12-16T19:41:46.544Z,101409.28
2018-12-16T19:44:14.760Z,101414.16
2018-12-16T19:46:42.952Z,101404.94
2018-12-16T19:49:11.184Z,101404.09
2018-12-16T19:51:39.380Z,101403.98
2018-12-16T19:54:07.592Z,101404.36
2018-12-16T19:56:35.875Z,101419.44
2018-12-16T19:59:04.425Z,101415.20
2018-12-16T20:01:32.604Z,101418.23
2018-12-16T20:04:06.151Z,101427.63
2018-12-16T20:06:39.540Z,101429.73
2018-12-16T20:09:07.980Z,101431.51
2018-12-16T20:11:36.202Z,101431.06
2018-12-16T20:14:04.597Z,101426.42
2018-12-16T20:16:32.821Z,101426.48
2018-12-16T20:19:00.992Z,101424.42
2018-12-16T20:21:29.172Z,101426.20
2018-12-16T20:23:57.376Z,101426.27
2018-12-16T20:26:25.601Z,101426.70
2018-12-16T20:28:53.767Z,101430.91
2018-12-16T20:31:21.971Z,101430.47
2018-12-16T20:33:50.200Z,101433.02
2018-12-16T20:36:18.488Z,101437.55
2018-12-16T20:38:46.691Z,101433.05
2018-12-16T20:41:14.903Z,101427.52
2018-12-16T20:43:44.019Z,101435.56
2018-12-16T20:46:12.243Z,101434.53
2018-12-16T20:48:40.429Z,101440.95
2018-12-16T20:51:08.621Z,101434.23
2018-12-16T20:53:36.841Z,101435.09
2018-12-16T20:56:05.021Z,101430.84
2018-12-16T20:58:33.235Z,101434.61
2018-12-16T21:01:01.540Z,101436.30
2018-12-16T21:03:29.864Z,101443.42
2018-12-16T21:05:58.070Z,101445.45
2018-12-16T21:08:26.296Z,101447.45
2018-12-16T21:10:54.468Z,101442.87
2018-12-16T21:13:28.081Z,101439.11
2018-12-16T21:16:01.598Z,101449.14
2018-12-16T21:18:31.860Z,101452.39
2018-12-16T21:21:00.071Z,101454.20
2018-12-16T21:23:28.284Z,101458.47
2018-12-16T21:25:56.500Z,101460.91
2018-12-16T21:28:24.680Z,101453.46
2018-12-16T21:30:52.931Z,101447.63
2018-12-16T21:33:21.162Z,101450.55
2018-12-16T21:35:49.421Z,101446.70
2018-12-16T21:38:17.653Z,101442.13
2018-12-16T21:40:45.852Z,101443.42
2018-12-16T21:43:14.059Z,101443.38
2018-12-16T21:45:42.488Z,101450.95
2018-12-16T21:48:10.658Z,101460.55
2018-12-16T21:50:38.860Z,101458.11
2018-12-16T21:53:07.042Z,101466.92
2018-12-16T21:55:35.344Z,101466.55
2018-12-16T21:58:03.529Z,101469.14
2018-12-16T22:00:31.748Z,101489.80
2018-12-16T22:02:59.930Z,101490.47
2018-12-16T22:05:31.020Z,101490.91
2018-12-16T22:07:59.548Z,101496.38
2018-12-16T22:10:27.769Z,101499.91
2018-12-16T22:12:55.940Z,101497.87
2018-12-16T22:15:24.289Z,101490.79
2018-12-16T22:17:52.467Z,101490.72
2018-12-16T22:20:20.648Z,101492.78
2018-12-16T22:22:48.859Z,101483.48
2018-12-16T22:25:17.079Z,101491.35
2018-12-16T22:27:45.328Z,101493.53
2018-12-16T22:30:13.504Z,101495.08
2018-12-16T22:32:41.685Z,101494.70
2018-12-16T22:35:10.012Z,101491.42
2018-12-16T22:37:38.192Z,101495.33
2018-12-16T22:40:07.064Z,101500.02
2018-12-16T22:42:35.235Z,101505.03
2018-12-16T22:45:03.772Z,101506.73
2018-12-16T22:47:31.956Z,101512.31
2018-12-16T22:50:00.249Z,101511.13
2018-12-16T22:52:28.485Z,101512.13
2018-12-16T22:54:56.707Z,101505.85
2018-12-16T22:57:24.891Z,101500.53
2018-12-16T22:59:53.100Z,101507.25
2018-12-16T23:02:21.328Z,101504.74
2018-12-16T23:04:49.504Z,101500.23
2018-12-16T23:07:17.751Z,101501.89
2018-12-16T23:09:45.944Z,101507.77
2018-12-16T23:12:14.169Z,101510.64
2018-12-16T23:14:42.484Z,101504.00
2018-12-16T23:17:10.702Z,101496.47
2018-12-16T23:19:38.924Z,101496.66
2018-12-16T23:22:07.206Z,101495.38
2018-12-16T23:24:35.732Z,101496.45
2018-12-16T23:27:03.919Z,101487.77
2018-12-16T23:29:32.156Z,101486.41
2018-12-16T23:32:00.332Z,101489.55
2018-12-16T23:34:28.516Z,101491.20
2018-12-16T23:36:56.781Z,101491.65
2018-12-16T23:39:24.952Z,101491.31
2018-12-16T23:41:53.129Z,101493.86
2018-12-16T23:44:21.340Z,101489.58
2018-12-16T23:46:49.537Z,101484.59
2018-12-16T23:49:17.752Z,101489.95
2018-12-16T23:51:45.964Z,101495.97
2018-12-16T23:54:14.150Z,101502.72
2018-12-16T23:56:42.444Z,101490.17
2018-12-16T23:59:10.625Z,101498.28
